createdAt,value
2022-08-19T00:01:57.038Z,55.12
2022-08-19T00:04:31.838Z,54.71
2022-08-19T00:06:59.358Z,55.08
2022-08-19T00:09:27.286Z,54.83
2022-08-19T00:11:56.397Z,55.09
2022-08-19T00:14:25.317Z,55.12
2022-08-19T00:16:55.219Z,55.23
2022-08-19T00:19:23.989Z,54.77
2022-08-19T00:21:52.285Z,55.23
2022-08-19T00:24:19.852Z,55.27
2022-08-19T00:26:47.175Z,55.23
2022-08-19T00:29:18.171Z,55.91
2022-08-19T00:31:46.868Z,55.83
2022-08-19T00:34:15.515Z,56.34
2022-08-19T00:36:43.692Z,56.33
2022-08-19T00:39:12.324Z,57.25
2022-08-19T00:41:41.404Z,56.50
2022-08-19T00:44:15.983Z,56.80
2022-08-19T00:46:55.565Z,56.51
2022-08-19T00:49:41.759Z,56.80
2022-08-19T00:52:24.084Z,56.47
2022-08-19T00:54:53.877Z,56.81
2022-08-19T00:57:51.906Z,57.03
2022-08-19T01:00:20.530Z,56.98
2022-08-19T01:02:47.487Z,56.95
2022-08-19T01:05:19.535Z,56.72
2022-08-19T01:07:46.679Z,57.07
2022-08-19T01:10:21.319Z,57.62
2022-08-19T01:12:49.265Z,57.15
2022-08-19T01:15:24.093Z,57.66
2022-08-19T01:17:51.968Z,57.12
2022-08-19T01:20:23.207Z,57.88
2022-08-19T01:22:58.270Z,57.27
2022-08-19T01:25:36.720Z,57.57
2022-08-19T01:28:10.596Z,57.42
2022-08-19T01:30:38.391Z,57.66
2022-08-19T01:33:06.536Z,57.15
2022-08-19T01:35:34.004Z,57.51
2022-08-19T01:38:08.693Z,57.91
2022-08-19T01:40:41.304Z,57.70
2022-08-19T01:43:08.747Z,57.95
2022-08-19T01:45:36.391Z,58.02
2022-08-19T01:48:05.255Z,57.93
2022-08-19T01:50:34.070Z,58.59
2022-08-19T01:53:06.822Z,58.90
2022-08-19T01:55:41.228Z,59.73
2022-08-19T01:58:16.053Z,60.17
2022-08-19T02:00:43.852Z,60.29
2022-08-19T02:03:12.149Z,60.90
2022-08-19T02:05:39.755Z,61.34
2022-08-19T02:08:07.009Z,61.33
2022-08-19T02:10:34.200Z,62.36
2022-08-19T02:13:01.244Z,62.01
2022-08-19T02:15:28.206Z,62.65
2022-08-19T02:17:55.160Z,62.70
2022-08-19T02:20:23.454Z,63.23
2022-08-19T02:22:50.353Z,63.43
2022-08-19T02:25:17.485Z,64.20
2022-08-19T02:27:44.676Z,64.31
2022-08-19T02:30:18.407Z,64.46
2022-08-19T02:32:45.670Z,64.50
2022-08-19T02:35:14.777Z,63.96
2022-08-19T02:38:02.131Z,63.69
2022-08-19T02:40:30.874Z,64.08
2022-08-19T02:42:58.220Z,64.46
2022-08-19T02:45:25.122Z,64.57
2022-08-19T02:47:52.136Z,64.51
2022-08-19T02:50:19.553Z,63.87
2022-08-19T02:52:46.500Z,64.33
2022-08-19T02:55:13.405Z,63.34
2022-08-19T02:57:40.310Z,63.90
2022-08-19T03:00:10.248Z,63.57
2022-08-19T03:02:37.152Z,63.27
2022-08-19T03:05:05.429Z,63.50
2022-08-19T03:07:32.378Z,62.81
2022-08-19T03:09:59.855Z,63.03
2022-08-19T03:12:26.762Z,61.99
2022-08-19T03:14:53.791Z,62.04
2022-08-19T03:17:21.136Z,61.88
2022-08-19T03:19:48.038Z,61.58
2022-08-19T03:22:15.060Z,60.80
2022-08-19T03:24:41.971Z,60.90
2022-08-19T03:27:08.887Z,60.86
2022-08-19T03:29:43.136Z,60.21
2022-08-19T03:32:24.449Z,60.60
2022-08-19T03:34:58.439Z,60.58
2022-08-19T03:37:26.935Z,60.88
2022-08-19T03:39:53.900Z,61.96
2022-08-19T03:42:32.362Z,62.03
2022-08-19T03:45:08.155Z,61.92
2022-08-19T03:47:35.151Z,62.75
2022-08-19T03:50:02.426Z,62.54
2022-08-19T03:52:29.381Z,63.39
2022-08-19T03:54:56.344Z,63.55
2022-08-19T03:57:24.424Z,64.66
2022-08-19T04:00:03.724Z,65.43
2022-08-19T04:02:39.623Z,65.99
2022-08-19T04:05:09.150Z,65.78
2022-08-19T04:07:36.531Z,65.94
2022-08-19T04:10:05.509Z,65.87
2022-08-19T04:12:32.871Z,65.76
2022-08-19T04:14:59.775Z,65.08
2022-08-19T04:17:26.828Z,65.44
2022-08-19T04:19:53.756Z,65.36
2022-08-19T04:22:20.646Z,65.40
2022-08-19T04:24:47.539Z,64.81
2022-08-19T04:27:15.047Z,65.47
2022-08-19T04:29:42.303Z,65.46
2022-08-19T04:32:11.853Z,64.95
2022-08-19T04:35:02.601Z,65.34
2022-08-19T04:37:35.412Z,65.55
2022-08-19T04:40:22.308Z,65.47
2022-08-19T04:42:49.281Z,65.58
2022-08-19T04:45:17.495Z,66.25
2022-08-19T04:47:49.115Z,66.40
2022-08-19T04:50:26.702Z,65.82
2022-08-19T04:52:54.154Z,65.97
2022-08-19T04:55:21.295Z,66.12
2022-08-19T04:57:48.246Z,66.01
2022-08-19T05:00:15.717Z,66.06
2022-08-19T05:02:42.653Z,66.42
2022-08-19T05:05:10.338Z,66.11
2022-08-19T05:07:37.693Z,66.10
2022-08-19T05:10:06.510Z,66.22
2022-08-19T05:12:33.400Z,66.46
2022-08-19T05:15:01.707Z,67.09
2022-08-19T05:17:33.283Z,67.51
2022-08-19T05:20:24.584Z,67.77
2022-08-19T05:22:51.495Z,67.78
2022-08-19T05:25:21.964Z,66.69
2022-08-19T05:27:49.667Z,66.58
2022-08-19T05:30:17.492Z,67.06
2022-08-19T05:32:44.921Z,67.28
2022-08-19T05:35:12.705Z,67.37
2022-08-19T05:37:41.136Z,67.67
2022-08-19T05:40:10.344Z,67.99
2022-08-19T05:42:38.330Z,68.45
2022-08-19T05:45:05.883Z,68.20
2022-08-19T05:47:33.149Z,68.44
2022-08-19T05:50:00.339Z,67.84
2022-08-19T05:52:29.017Z,68.42
2022-08-19T05:54:57.397Z,68.96
2022-08-19T05:57:25.156Z,69.27
2022-08-19T05:59:58.340Z,69.38
2022-08-19T06:02:31.642Z,69.21
2022-08-19T06:04:59.061Z,70.02
2022-08-19T06:07:26.566Z,69.49
2022-08-19T06:10:00.246Z,69.54
2022-08-19T06:12:32.662Z,70.01
2022-08-19T06:15:06.089Z,70.54
2022-08-19T06:17:35.683Z,70.92
2022-08-19T06:20:14.316Z,70.73
2022-08-19T06:22:44.106Z,70.79
2022-08-19T06:25:12.851Z,70.66
2022-08-19T06:27:58.575Z,70.82
2022-08-19T06:30:26.840Z,70.93
2022-08-19T06:32:53.719Z,70.97
2022-08-19T06:35:20.915Z,70.96
2022-08-19T06:37:48.021Z,71.52
2022-08-19T06:40:15.075Z,71.39
2022-08-19T06:42:52.313Z,71.67
2022-08-19T06:45:24.861Z,71.50
2022-08-19T06:48:01.669Z,71.46
2022-08-19T06:50:28.565Z,70.98
2022-08-19T06:52:55.659Z,70.99
2022-08-19T06:55:22.798Z,71.19
2022-08-19T06:57:54.329Z,71.81
2022-08-19T07:00:21.634Z,72.04
2022-08-19T07:02:53.344Z,71.60
2022-08-19T07:05:25.971Z,71.59
2022-08-19T07:07:52.859Z,70.72
2022-08-19T07:10:20.204Z,70.98
2022-08-19T07:12:47.478Z,70.86
2022-08-19T07:15:14.386Z,70.02
2022-08-19T07:17:42.287Z,70.16
2022-08-19T07:20:10.301Z,69.57
2022-08-19T07:22:40.766Z,69.45
2022-08-19T07:25:09.869Z,69.77
2022-08-19T07:27:38.086Z,69.44
2022-08-19T07:30:11.615Z,69.83
2022-08-19T07:32:39.798Z,70.28
2022-08-19T07:35:07.880Z,71.27
2022-08-19T07:37:37.929Z,71.11
2022-08-19T07:40:07.648Z,71.53
2022-08-19T07:42:34.588Z,71.91
2022-08-19T07:45:01.469Z,71.73
2022-08-19T07:47:48.872Z,71.91
2022-08-19T07:50:17.409Z,71.47
2022-08-19T07:52:47.108Z,72.11
2022-08-19T07:55:41.999Z,72.01
2022-08-19T07:58:05.973Z,72.13
2022-08-19T08:00:33.183Z,72.13
2022-08-19T08:03:00.116Z,71.81
2022-08-19T08:05:45.494Z,71.76
2022-08-19T08:08:33.499Z,72.17
2022-08-19T08:11:01.328Z,72.38
2022-08-19T08:13:28.907Z,72.38
2022-08-19T08:15:57.447Z,72.77
2022-08-19T08:18:30.439Z,73.30
2022-08-19T08:20:59.038Z,73.67
2022-08-19T08:23:27.316Z,73.40
2022-08-19T08:25:58.079Z,73.20
2022-08-19T08:28:29.605Z,73.78
2022-08-19T08:30:58.445Z,73.71
2022-08-19T08:33:34.413Z,73.46
2022-08-19T08:36:09.582Z,72.88
2022-08-19T08:38:41.367Z,72.52
2022-08-19T08:41:29.717Z,72.60
2022-08-19T08:43:58.251Z,72.11
2022-08-19T08:46:46.348Z,72.13
2022-08-19T08:50:19.534Z,71.45
2022-08-19T08:52:52.069Z,71.31
2022-08-19T08:55:24.217Z,71.44
2022-08-19T08:58:07.930Z,71.12
2022-08-19T09:00:41.177Z,70.98
2022-08-19T09:03:23.808Z,70.11
2022-08-19T09:06:03.456Z,69.72
2022-08-19T09:08:56.686Z,69.67
2022-08-19T09:11:49.055Z,69.01
2022-08-19T09:14:51.156Z,69.43
2022-08-19T09:17:34.621Z,68.67
2022-08-19T09:20:26.231Z,68.76
2022-08-19T09:22:53.406Z,68.60
2022-08-19T09:25:26.787Z,68.54
2022-08-19T09:28:02.442Z,68.50
2022-08-19T09:30:35.452Z,69.05
2022-08-19T09:33:02.688Z,68.77
2022-08-19T09:35:31.283Z,68.74
2022-08-19T09:38:00.015Z,68.28
2022-08-19T09:40:35.465Z,68.22
2022-08-19T09:43:10.007Z,67.99
2022-08-19T09:45:39.836Z,68.25
2022-08-19T09:48:07.082Z,67.46
2022-08-19T09:50:35.120Z,67.42
2022-08-19T09:53:02.096Z,67.95
2022-08-19T09:55:31.316Z,67.96
2022-08-19T09:58:01.583Z,68.35
2022-08-19T10:00:28.492Z,67.99
2022-08-19T10:02:55.416Z,67.80
2022-08-19T10:05:42.338Z,68.35
2022-08-19T10:08:13.373Z,68.15
2022-08-19T10:10:46.802Z,68.40
2022-08-19T10:13:27.083Z,68.30
2022-08-19T10:15:58.134Z,67.95
2022-08-19T10:18:26.467Z,67.90
2022-08-19T10:21:11.679Z,67.78
2022-08-19T10:23:42.439Z,67.69
2022-08-19T10:26:09.380Z,67.29
2022-08-19T10:28:40.751Z,67.12
2022-08-19T10:31:18.279Z,66.90
2022-08-19T10:33:53.960Z,67.01
2022-08-19T10:36:23.839Z,65.17
2022-08-19T10:38:56.842Z,65.90
2022-08-19T10:41:28.886Z,65.38
2022-08-19T10:44:04.498Z,65.28
2022-08-19T10:46:33.592Z,64.79
2022-08-19T10:49:02.685Z,65.01
2022-08-19T10:51:49.207Z,65.26
2022-08-19T10:54:17.599Z,64.29
2022-08-19T10:56:58.205Z,63.94
2022-08-19T10:59:33.789Z,64.19
2022-08-19T11:02:06.563Z,63.71
2022-08-19T11:04:34.207Z,62.98
2022-08-19T11:07:02.985Z,62.83
2022-08-19T11:09:34.011Z,63.23
2022-08-19T11:12:02.959Z,62.64
2022-08-19T11:14:34.135Z,61.39
2022-08-19T11:17:02.566Z,61.77
2022-08-19T11:19:29.501Z,61.72
2022-08-19T11:21:57.502Z,61.90
2022-08-19T11:24:26.791Z,61.62
2022-08-19T11:26:59.946Z,61.85
2022-08-19T11:29:28.687Z,60.29
2022-08-19T11:31:55.991Z,60.44
2022-08-19T11:34:26.391Z,60.57
2022-08-19T11:36:58.987Z,60.08
2022-08-19T11:39:28.291Z,60.17
2022-08-19T11:41:55.387Z,59.79
2022-08-19T11:44:22.317Z,59.49
2022-08-19T11:46:49.231Z,59.86
2022-08-19T11:49:19.708Z,59.42
2022-08-19T11:51:47.966Z,59.42
2022-08-19T11:54:17.121Z,59.42
2022-08-19T11:56:46.524Z,59.36
2022-08-19T11:59:15.043Z,59.20
2022-08-19T12:01:43.527Z,58.65
2022-08-19T12:04:11.644Z,58.59
2022-08-19T12:06:41.120Z,58.45
2022-08-19T12:09:10.945Z,58.69
2022-08-19T12:11:39.613Z,58.90
2022-08-19T12:14:07.969Z,59.06
2022-08-19T12:16:36.208Z,59.16
2022-08-19T12:19:06.237Z,58.89
2022-08-19T12:21:36.102Z,58.97
2022-08-19T12:24:05.955Z,58.88
2022-08-19T12:26:33.643Z,58.91
2022-08-19T12:29:23.363Z,58.93
2022-08-19T12:31:51.421Z,58.79
2022-08-19T12:34:18.383Z,58.65
2022-08-19T12:36:45.275Z,58.77
2022-08-19T12:39:12.296Z,58.78
2022-08-19T12:41:43.332Z,58.89
2022-08-19T12:44:19.351Z,58.81
2022-08-19T12:46:47.799Z,58.92
2022-08-19T12:49:52.200Z,58.95
2022-08-19T12:52:09.624Z,59.27
2022-08-19T12:54:38.192Z,59.64
2022-08-19T12:57:09.743Z,59.99
2022-08-19T12:59:37.827Z,59.18
2022-08-19T13:02:07.193Z,59.44
2022-08-19T13:04:37.293Z,59.54
2022-08-19T13:07:05.092Z,59.65
2022-08-19T13:09:31.998Z,59.27
2022-08-19T13:11:58.936Z,59.17
2022-08-19T13:14:27.072Z,59.20
2022-08-19T13:16:54.098Z,59.12
2022-08-19T13:19:24.074Z,58.98
2022-08-19T13:21:51.985Z,59.04
2022-08-19T13:24:29.468Z,58.66
2022-08-19T13:27:03.532Z,59.27
2022-08-19T13:29:49.270Z,59.40
2022-08-19T13:32:34.789Z,59.46
2022-08-19T13:35:04.258Z,59.31
2022-08-19T13:37:49.050Z,59.02
2022-08-19T13:40:20.032Z,59.44
2022-08-19T13:42:49.450Z,58.58
2022-08-19T13:45:23.809Z,58.78
2022-08-19T13:47:57.127Z,59.55
2022-08-19T13:50:29.516Z,59.49
2022-08-19T13:52:57.423Z,59.23
2022-08-19T13:55:25.765Z,59.29
2022-08-19T13:57:59.519Z,59.20
2022-08-19T14:00:30.437Z,59.42
2022-08-19T14:02:58.703Z,59.37
2022-08-19T14:05:28.547Z,59.47
2022-08-19T14:07:56.756Z,58.76
2022-08-19T14:10:24.990Z,59.26
2022-08-19T14:13:02.332Z,59.37
2022-08-19T14:15:30.015Z,59.39
2022-08-19T14:17:57.455Z,58.93
2022-08-19T14:20:25.913Z,58.99
2022-08-19T14:22:54.141Z,58.96
2022-08-19T14:25:26.828Z,59.01
2022-08-19T14:27:54.024Z,59.14
2022-08-19T14:30:29.258Z,58.81
2022-08-19T14:32:59.157Z,58.58
2022-08-19T14:35:28.243Z,58.36
2022-08-19T14:37:56.913Z,58.09
2022-08-19T14:40:28.552Z,58.34
2022-08-19T14:43:04.672Z,58.53
2022-08-19T14:45:35.066Z,58.55
2022-08-19T14:48:05.545Z,58.32
2022-08-19T14:50:33.812Z,58.36
2022-08-19T14:53:11.851Z,58.46
2022-08-19T14:55:43.903Z,58.52
2022-08-19T14:58:28.415Z,58.23
2022-08-19T15:00:58.515Z,58.56
2022-08-19T15:03:26.956Z,58.14
2022-08-19T15:05:54.271Z,58.53
2022-08-19T15:08:25.614Z,58.48
2022-08-19T15:10:53.101Z,58.81
2022-08-19T15:13:20.066Z,58.54
2022-08-19T15:15:48.262Z,58.47
2022-08-19T15:18:15.506Z,58.49
2022-08-19T15:20:44.444Z,58.51
2022-08-19T15:23:18.450Z,58.53
2022-08-19T15:25:45.510Z,58.58
2022-08-19T15:28:12.632Z,58.47
2022-08-19T15:30:41.759Z,59.12
2022-08-19T15:33:09.243Z,58.54
2022-08-19T15:35:36.208Z,58.72
2022-08-19T15:38:03.200Z,58.68
2022-08-19T15:40:30.112Z,58.95
2022-08-19T15:42:58.755Z,59.09
2022-08-19T15:45:32.478Z,58.70
2022-08-19T15:48:01.431Z,58.89
2022-08-19T15:50:29.200Z,58.50
2022-08-19T15:53:03.815Z,58.43
2022-08-19T15:55:36.044Z,58.64
2022-08-19T15:58:29.910Z,58.38
2022-08-19T16:01:23.629Z,58.38
2022-08-19T16:04:14.530Z,58.54
2022-08-19T16:06:49.773Z,58.16
2022-08-19T16:09:22.138Z,58.15
2022-08-19T16:11:56.900Z,58.23
2022-08-19T16:14:25.501Z,58.29
2022-08-19T16:16:54.025Z,58.54
2022-08-19T16:19:20.943Z,58.22
2022-08-19T16:21:52.400Z,58.79
2022-08-19T16:24:27.247Z,59.17
2022-08-19T16:26:54.974Z,59.27
2022-08-19T16:29:33.319Z,59.14
2022-08-19T16:32:05.005Z,59.52
2022-08-19T16:34:32.331Z,59.14
2022-08-19T16:37:00.649Z,59.45
2022-08-19T16:39:27.593Z,58.63
2022-08-19T16:41:54.499Z,59.38
2022-08-19T16:44:21.966Z,58.89
2022-08-19T16:46:58.945Z,59.52
2022-08-19T16:49:53.438Z,59.68
2022-08-19T16:52:16.891Z,59.23
2022-08-19T16:54:44.069Z,58.87
2022-08-19T16:57:12.930Z,59.15
2022-08-19T16:59:43.765Z,58.78
2022-08-19T17:02:23.179Z,58.71
2022-08-19T17:04:57.792Z,58.81
2022-08-19T17:07:27.942Z,59.01
2022-08-19T17:09:55.822Z,59.15
2022-08-19T17:12:30.475Z,59.06
2022-08-19T17:15:05.131Z,58.70
2022-08-19T17:17:32.453Z,59.03
2022-08-19T17:20:01.182Z,58.43
2022-08-19T17:22:28.824Z,58.36
2022-08-19T17:24:56.318Z,58.24
2022-08-19T17:27:25.928Z,57.79
2022-08-19T17:29:52.975Z,57.75
2022-08-19T17:32:25.226Z,57.51
2022-08-19T17:34:54.087Z,57.25
2022-08-19T17:37:21.680Z,57.71
2022-08-19T17:39:48.957Z,56.99
2022-08-19T17:42:15.887Z,57.31
2022-08-19T17:44:42.897Z,56.93
2022-08-19T17:47:13.871Z,57.17
2022-08-19T17:49:40.880Z,57.45
2022-08-19T17:52:10.054Z,57.34
2022-08-19T17:54:37.347Z,57.15
2022-08-19T17:57:04.470Z,57.97
2022-08-19T17:59:31.363Z,57.53
2022-08-19T18:01:59.964Z,57.46
2022-08-19T18:04:27.468Z,57.74
2022-08-19T18:06:55.799Z,57.78
2022-08-19T18:09:28.697Z,58.05
2022-08-19T18:12:11.289Z,57.76
2022-08-19T18:14:39.247Z,57.92
2022-08-19T18:17:10.774Z,58.44
2022-08-19T18:19:42.061Z,58.04
2022-08-19T18:22:23.831Z,58.96
2022-08-19T18:24:51.379Z,58.55
2022-08-19T18:27:18.326Z,58.67
2022-08-19T18:29:45.490Z,58.52
2022-08-19T18:32:12.907Z,58.74
2022-08-19T18:34:44.429Z,59.14
2022-08-19T18:37:11.975Z,59.21
2022-08-19T18:39:57.473Z,59.35
2022-08-19T18:42:43.372Z,59.60
2022-08-19T18:45:29.902Z,59.77
2022-08-19T18:48:26.961Z,59.88
2022-08-19T18:51:00.187Z,59.69
2022-08-19T18:53:33.813Z,60.21
2022-08-19T18:56:00.900Z,60.04
2022-08-19T18:58:34.681Z,60.41
2022-08-19T19:01:17.299Z,59.98
2022-08-19T19:03:52.882Z,59.97
2022-08-19T19:06:24.943Z,60.32
2022-08-19T19:08:53.310Z,60.24
2022-08-19T19:11:29.723Z,60.60
2022-08-19T19:13:57.151Z,60.53
2022-08-19T19:16:24.755Z,60.04
2022-08-19T19:18:52.789Z,60.55
2022-08-19T19:21:25.335Z,60.64
2022-08-19T19:23:54.563Z,60.52
2022-08-19T19:26:21.780Z,61.01
2022-08-19T19:28:49.205Z,60.49
2022-08-19T19:31:26.685Z,60.46
2022-08-19T19:33:55.934Z,60.72
2022-08-19T19:36:23.668Z,60.97
2022-08-19T19:38:50.662Z,60.74
2022-08-19T19:41:25.830Z,60.93
2022-08-19T19:44:23.187Z,60.41
2022-08-19T19:46:43.037Z,60.81
2022-08-19T19:49:11.310Z,60.80
2022-08-19T19:51:39.410Z,60.62
2022-08-19T19:54:15.040Z,60.66
2022-08-19T19:56:46.018Z,61.03
2022-08-19T19:59:13.022Z,61.07
2022-08-19T20:01:44.297Z,60.61
2022-08-19T20:04:12.585Z,60.95
2022-08-19T20:06:39.677Z,61.31
2022-08-19T20:09:10.524Z,61.33
2022-08-19T20:11:53.503Z,61.50
2022-08-19T20:14:26.193Z,61.31
2022-08-19T20:16:55.651Z,61.36
2022-08-19T20:19:26.954Z,61.58
2022-08-19T20:21:55.815Z,61.62
2022-08-19T20:24:28.335Z,61.34
2022-08-19T20:26:55.389Z,61.17
2022-08-19T20:29:38.796Z,61.45
2022-08-19T20:32:10.194Z,60.89
2022-08-19T20:34:37.285Z,61.47
2022-08-19T20:37:04.675Z,60.95
2022-08-19T20:39:31.693Z,60.89
2022-08-19T20:41:58.649Z,61.08
2022-08-19T20:44:25.755Z,61.68
2022-08-19T20:46:55.477Z,61.50
2022-08-19T20:49:27.009Z,61.40
2022-08-19T20:51:55.886Z,61.84
2022-08-19T20:54:24.160Z,62.05
2022-08-19T20:56:51.676Z,61.89
2022-08-19T20:59:20.420Z,61.43
2022-08-19T21:01:47.955Z,61.59
2022-08-19T21:04:15.202Z,61.97
2022-08-19T21:06:45.515Z,61.72
2022-08-19T21:09:13.699Z,62.11
2022-08-19T21:11:40.833Z,62.46
2022-08-19T21:14:07.827Z,62.04
2022-08-19T21:16:34.787Z,62.04
2022-08-19T21:19:01.721Z,62.12
2022-08-19T21:21:28.878Z,62.55
2022-08-19T21:23:55.991Z,62.07
2022-08-19T21:26:24.285Z,62.59
2022-08-19T21:28:51.217Z,62.02
2022-08-19T21:31:18.148Z,61.97
2022-08-19T21:33:45.619Z,62.29
2022-08-19T21:36:12.544Z,62.25
2022-08-19T21:38:39.481Z,62.48
2022-08-19T21:41:06.947Z,62.82
2022-08-19T21:43:36.192Z,62.49
2022-08-19T21:46:04.098Z,62.78
2022-08-19T21:48:31.009Z,62.57
2022-08-19T21:50:57.913Z,62.79
2022-08-19T21:53:24.906Z,63.39
2022-08-19T21:55:58.619Z,63.48
2022-08-19T21:58:29.268Z,63.50
2022-08-19T22:01:06.247Z,63.27
2022-08-19T22:03:35.419Z,64.02
2022-08-19T22:06:02.777Z,63.69
2022-08-19T22:08:29.798Z,64.09
2022-08-19T22:10:59.119Z,63.67
2022-08-19T22:13:26.776Z,63.79
2022-08-19T22:15:55.128Z,64.49
2022-08-19T22:18:22.067Z,64.68
2022-08-19T22:20:49.019Z,64.09
2022-08-19T22:23:16.141Z,64.87
2022-08-19T22:25:47.239Z,64.55
2022-08-19T22:28:19.106Z,64.83
2022-08-19T22:30:54.965Z,65.33
2022-08-19T22:33:22.532Z,64.71
2022-08-19T22:35:51.608Z,65.10
2022-08-19T22:38:19.341Z,64.83
2022-08-19T22:40:49.103Z,64.95
2022-08-19T22:43:20.653Z,65.11
2022-08-19T22:45:49.456Z,65.32
2022-08-19T22:48:21.373Z,65.19
2022-08-19T22:51:08.415Z,65.19
2022-08-19T22:53:41.355Z,65.83
2022-08-19T22:56:14.986Z,65.43
2022-08-19T22:58:42.616Z,65.83
2022-08-19T23:01:14.630Z,65.44
2022-08-19T23:03:50.146Z,65.27
2022-08-19T23:06:17.400Z,65.64
2022-08-19T23:08:44.606Z,65.54
2022-08-19T23:11:11.903Z,65.85
2022-08-19T23:13:40.781Z,66.01
2022-08-19T23:16:08.116Z,65.50
2022-08-19T23:18:35.143Z,65.78
2022-08-19T23:21:02.052Z,65.80
2022-08-19T23:23:29.089Z,65.90
2022-08-19T23:25:57.146Z,66.18
2022-08-19T23:28:42.926Z,65.88
2022-08-19T23:31:11.274Z,66.02
2022-08-19T23:33:51.898Z,65.63
2022-08-19T23:36:20.424Z,66.22
2022-08-19T23:38:49.385Z,66.23
2022-08-19T23:41:18.597Z,65.92
2022-08-19T23:43:46.503Z,65.73
2022-08-19T23:46:27.503Z,66.20
2022-08-19T23:48:56.262Z,65.95
2022-08-19T23:51:23.239Z,65.93
2022-08-19T23:53:50.423Z,66.00
2022-08-19T23:56:17.330Z,66.08
2022-08-19T23:58:44.252Z,65.84
